Time;durP1;ratioP1;P1;durP2;ratioP2;P2;SDS_P1;SDS_P2;PMS_P1;PMS_P2;Temp;Humidity;BMP_temperature;BMP_pressure;BME280_temperature;BME280_humidity;BME280_pressure;Samples;Min_cycle;Max_cycle;Signal;HPM_P1;HPM_P2
2023/03/08 00:01:17;;;;;;;8.55;5.20;;;;;;;16.44;38.18;98826.22;5072143;28;20053;-67
2023/03/08 00:03:46;;;;;;;8.55;5.57;;;;;;;16.42;38.33;98822.84;5072155;28;20106;-66
2023/03/08 00:06:15;;;;;;;7.65;5.07;;;;;;;16.37;38.31;98819.81;5072551;28;20135;-66
2023/03/08 00:08:44;;;;;;;8.20;5.03;;;;;;;16.36;38.33;98828.88;5072041;28;20063;-66
2023/03/08 00:11:13;;;;;;;7.10;4.82;;;;;;;16.32;38.28;98830.22;5072033;28;20045;-66
2023/03/08 00:13:41;;;;;;;8.73;5.32;;;;;;;16.29;38.48;98827.84;5071974;28;20047;-65
2023/03/08 00:16:12;;;;;;;8.48;5.15;;;;;;;16.28;38.46;98828.84;5071808;28;20049;-66
2023/03/08 00:18:42;;;;;;;8.18;5.28;;;;;;;16.25;38.32;98831.88;5071861;28;20052;-66
2023/03/08 00:21:12;;;;;;;8.60;4.88;;;;;;;16.21;38.49;98835.88;5071878;28;20052;-66
2023/03/08 00:23:41;;;;;;;8.13;5.30;;;;;;;16.18;38.45;98837.06;5071827;28;20044;-66
2023/03/08 00:26:10;;;;;;;8.15;5.40;;;;;;;16.16;38.58;98836.38;5071963;28;20036;-67
2023/03/08 00:28:38;;;;;;;7.55;5.15;;;;;;;16.10;38.47;98834.34;5071925;28;20072;-67
2023/03/08 00:31:10;;;;;;;7.40;4.70;;;;;;;16.10;38.50;98830.81;5071718;28;20044;-67
2023/03/08 00:33:38;;;;;;;8.32;5.25;;;;;;;16.07;38.45;98831.13;5071763;28;20417;-68
2023/03/08 00:36:13;;;;;;;7.93;5.15;;;;;;;16.06;38.64;98829.44;5071692;28;20102;-67
2023/03/08 00:38:41;;;;;;;7.78;5.28;;;;;;;16.03;38.54;98844.06;5071692;28;20051;-66
2023/03/08 00:41:10;;;;;;;7.75;5.10;;;;;;;16.01;38.67;98832.59;5071701;28;20581;-66
2023/03/08 00:43:38;;;;;;;8.82;5.38;;;;;;;15.96;38.65;98827.72;5071624;28;20048;-66
2023/03/08 00:46:06;;;;;;;7.75;5.07;;;;;;;15.96;38.73;98816.97;5071565;28;20045;-66
2023/03/08 00:48:34;;;;;;;7.20;4.93;;;;;;;15.92;38.58;98810.25;5071545;28;20071;-66
2023/03/08 00:51:03;;;;;;;9.05;5.43;;;;;;;15.88;38.58;98808.84;5071412;28;20045;-66
2023/03/08 00:53:33;;;;;;;8.43;5.32;;;;;;;15.87;38.63;98803.66;5071538;28;20051;-66
2023/03/08 00:56:02;;;;;;;8.65;5.50;;;;;;;15.85;38.69;98819.94;5071501;28;20078;-67
2023/03/08 00:58:31;;;;;;;8.88;5.55;;;;;;;15.82;38.71;98817.56;5071457;28;20485;-66
2023/03/08 01:01:00;;;;;;;7.80;5.40;;;;;;;15.80;38.84;98816.03;5071527;28;20409;-66
2023/03/08 01:03:28;;;;;;;8.30;5.22;;;;;;;15.78;38.84;98824.28;5071375;28;20408;-66
2023/03/08 01:05:58;;;;;;;8.75;5.35;;;;;;;15.75;38.73;98824.59;5071407;28;20378;-65
2023/03/08 01:08:27;;;;;;;8.27;5.47;;;;;;;15.73;38.88;98834.69;5071616;28;20037;-66
2023/03/08 01:10:58;;;;;;;8.73;5.35;;;;;;;15.70;38.79;98826.91;5071416;28;20037;-66
2023/03/08 01:13:29;;;;;;;6.65;4.57;;;;;;;15.69;38.91;98833.28;5071265;28;20040;-67
2023/03/08 01:15:58;;;;;;;7.30;5.13;;;;;;;15.68;38.77;98828.91;5071446;28;20496;-66
2023/03/08 01:18:26;;;;;;;7.68;5.25;;;;;;;15.65;38.76;98829.25;5071299;28;20060;-67
2023/03/08 01:20:56;;;;;;;7.53;5.03;;;;;;;15.63;38.88;98825.84;5071169;28;20049;-66
2023/03/08 01:23:24;;;;;;;7.90;5.35;;;;;;;15.59;38.79;98828.00;5071252;28;20109;-67
2023/03/08 01:26:01;;;;;;;9.15;5.35;;;;;;;15.58;38.88;98836.22;5071153;28;20044;-67
2023/03/08 01:28:30;;;;;;;8.32;5.25;;;;;;;15.56;38.97;98832.84;5075317;28;20052;-67
2023/03/08 01:31:02;;;;;;;7.85;4.80;;;;;;;15.54;38.83;98837.50;5074962;28;20102;-67
2023/03/08 01:33:30;;;;;;;8.82;5.53;;;;;;;15.53;39.00;98841.22;5074937;28;20048;-67
2023/03/08 01:35:58;;;;;;;7.45;4.93;;;;;;;15.50;38.90;98852.28;5074852;28;20048;-67
2023/03/08 01:38:26;;;;;;;8.45;5.13;;;;;;;15.48;38.91;98852.44;5074810;28;20100;-68
2023/03/08 01:40:58;;;;;;;7.80;5.05;;;;;;;15.45;38.85;98850.94;5074530;28;20048;-67
2023/03/08 01:43:29;;;;;;;7.60;4.47;;;;;;;15.43;38.89;98850.22;5074738;28;20071;-67
2023/03/08 01:46:14;;;;;;;8.18;5.68;;;;;;;15.37;38.83;98842.78;5074717;28;20044;-66
2023/03/08 01:48:46;;;;;;;7.28;5.15;;;;;;;15.37;38.87;98853.53;5074643;28;20047;-67
2023/03/08 01:51:19;;;;;;;7.70;5.10;;;;;;;15.37;38.94;98852.69;5074586;28;20127;-67
2023/03/08 01:53:47;;;;;;;7.05;4.72;;;;;;;15.34;38.76;98851.16;5074554;28;20044;-67
2023/03/08 01:56:18;;;;;;;7.70;4.72;;;;;;;15.33;38.89;98862.91;5074655;28;20524;-67
2023/03/08 01:58:50;;;;;;;8.20;5.40;;;;;;;15.31;38.90;98864.91;5074578;28;20052;-67
2023/03/08 02:01:19;;;;;;;8.40;5.38;;;;;;;15.29;39.06;98872.28;5074260;28;20402;-67
2023/03/08 02:03:48;;;;;;;6.88;4.78;;;;;;;15.26;38.91;98867.22;5074229;28;20048;-67
2023/03/08 02:06:21;;;;;;;7.70;5.18;;;;;;;15.24;39.02;98869.19;5074348;28;20059;-66
2023/03/08 02:08:50;;;;;;;8.05;5.25;;;;;;;15.22;38.98;98865.84;5074287;28;20128;-66
2023/03/08 02:11:20;;;;;;;7.03;5.00;;;;;;;15.21;38.99;98874.91;5073986;28;20048;-67
2023/03/08 02:13:50;;;;;;;7.38;5.00;;;;;;;15.18;39.03;98876.06;5074019;28;20048;-66
2023/03/08 02:16:21;;;;;;;7.18;5.10;;;;;;;15.17;38.98;98884.28;5074045;28;20074;-66
2023/03/08 02:18:54;;;;;;;7.20;4.93;;;;;;;15.13;38.94;98877.50;5073953;28;20048;-65
2023/03/08 02:21:23;;;;;;;7.32;5.00;;;;;;;15.11;38.97;98879.50;5074079;28;20127;-68
2023/03/08 02:23:52;;;;;;;7.13;4.70;;;;;;;15.11;39.15;98884.88;5073897;28;20041;-67
2023/03/08 02:26:21;;;;;;;8.00;5.35;;;;;;;15.07;38.99;98878.97;5073935;28;20438;-67
2023/03/08 02:28:49;;;;;;;7.03;5.13;;;;;;;15.06;39.03;98882.66;5073839;28;20048;-67
2023/03/08 02:31:18;;;;;;;8.18;5.25;;;;;;;15.06;38.96;98881.84;5073749;28;20521;-68
2023/03/08 02:33:46;;;;;;;8.68;5.32;;;;;;;15.04;38.99;98884.63;5073800;28;20075;-68
2023/03/08 02:36:14;;;;;;;8.68;5.55;;;;;;;15.02;38.93;98880.44;5073848;28;20067;-67
2023/03/08 02:38:42;;;;;;;8.02;5.03;;;;;;;15.01;39.00;98889.50;5073368;28;20493;-67
2023/03/08 02:41:12;;;;;;;8.88;5.47;;;;;;;14.98;39.04;98890.66;5073546;28;20040;-68
2023/03/08 02:43:40;;;;;;;8.15;4.75;;;;;;;14.97;39.12;98899.69;5073541;28;20048;-67
2023/03/08 02:46:11;;;;;;;8.02;4.97;;;;;;;14.94;39.12;98899.16;5073626;28;20045;-66
2023/03/08 02:48:39;;;;;;;8.35;5.25;;;;;;;14.96;39.04;98910.56;5073581;28;20079;-66
2023/03/08 02:51:07;;;;;;;7.10;4.97;;;;;;;14.92;39.08;98914.56;5073629;28;20068;-66
2023/03/08 02:53:35;;;;;;;7.72;5.32;;;;;;;14.89;39.16;98919.25;5073465;28;20051;-66
2023/03/08 02:56:03;;;;;;;7.68;4.97;;;;;;;14.88;39.04;98920.25;5073365;28;20043;-65
2023/03/08 02:58:34;;;;;;;7.75;5.10;;;;;;;14.86;39.12;98929.44;5073346;28;20697;-67
2023/03/08 03:01:02;;;;;;;8.20;5.45;;;;;;;14.83;39.13;98922.53;5073316;28;20128;-67
2023/03/08 03:03:31;;;;;;;7.47;5.03;;;;;;;14.83;39.09;98930.59;5073178;28;20048;-66
2023/03/08 03:05:59;;;;;;;7.65;5.03;;;;;;;14.80;39.03;98932.75;5073074;28;20068;-66
2023/03/08 03:08:29;;;;;;;7.72;4.90;;;;;;;14.80;39.11;98930.91;5073062;28;20044;-66
2023/03/08 03:10:57;;;;;;;7.93;5.20;;;;;;;14.76;39.10;98937.53;5073089;28;20440;-67
2023/03/08 03:13:25;;;;;;;8.00;5.20;;;;;;;14.75;39.01;98938.53;5073097;28;20094;-66
2023/03/08 03:15:55;;;;;;;7.20;5.32;;;;;;;14.74;39.09;98944.91;5073104;28;20097;-66
2023/03/08 03:18:23;;;;;;;8.95;5.55;;;;;;;14.72;39.00;98938.84;5072979;28;20128;-66
2023/03/08 03:20:51;;;;;;;7.93;5.25;;;;;;;14.70;39.03;98950.75;5072798;28;20051;-66
2023/03/08 03:23:19;;;;;;;7.90;4.85;;;;;;;14.69;39.00;98955.25;5072867;28;20444;-67
2023/03/08 03:25:48;;;;;;;9.52;5.22;;;;;;;14.68;39.21;98956.25;5072771;28;20048;-66
2023/03/08 03:28:16;;;;;;;8.20;5.22;;;;;;;14.67;39.13;98961.75;5072811;28;20421;-66
2023/03/08 03:30:44;;;;;;;7.82;5.20;;;;;;;14.66;39.10;98970.81;5072772;28;20115;-65
2023/03/08 03:33:16;;;;;;;7.43;5.05;;;;;;;14.63;39.02;98981.84;5072671;28;20101;-66
2023/03/08 03:35:44;;;;;;;7.85;4.93;;;;;;;14.60;39.20;98978.47;5072535;28;20131;-66
2023/03/08 03:38:12;;;;;;;8.23;5.43;;;;;;;14.59;39.16;98987.53;5072437;28;20093;-65
2023/03/08 03:40:40;;;;;;;7.32;5.32;;;;;;;14.57;39.25;98989.50;5072391;28;20056;-66
2023/03/08 03:43:09;;;;;;;7.63;5.05;;;;;;;14.56;39.27;98978.91;5072364;28;20048;-65
2023/03/08 03:45:37;;;;;;;8.23;5.40;;;;;;;14.56;39.18;98986.94;5072305;28;20098;-65
2023/03/08 03:48:06;;;;;;;7.90;5.05;;;;;;;14.53;39.21;98971.16;5072164;28;20056;-65
2023/03/08 03:50:35;;;;;;;7.82;5.15;;;;;;;14.53;39.20;98973.84;5071790;28;20044;-65
2023/03/08 03:53:03;;;;;;;6.93;4.97;;;;;;;14.50;39.15;98968.78;5072339;28;20048;-66
2023/03/08 03:55:31;;;;;;;8.05;5.15;;;;;;;14.49;39.37;98959.03;5072197;28;20052;-65
2023/03/08 03:57:59;;;;;;;8.82;5.40;;;;;;;14.49;39.32;98964.41;5072194;28;20494;-65
2023/03/08 04:00:28;;;;;;;7.90;5.38;;;;;;;14.47;39.40;98950.28;5072113;28;20052;-66
2023/03/08 04:02:56;;;;;;;7.57;4.80;;;;;;;14.46;38.97;98946.75;5072179;28;20128;-65
2023/03/08 04:05:24;;;;;;;7.18;5.05;;;;;;;14.45;39.33;98938.84;5071901;28;20048;-66
2023/03/08 04:07:53;;;;;;;7.75;5.05;;;;;;;14.44;39.20;98934.44;5072039;28;20068;-66
2023/03/08 04:10:22;;;;;;;8.88;5.28;;;;;;;14.41;39.20;98932.06;5071935;28;20074;-66
2023/03/08 04:12:50;;;;;;;7.40;4.78;;;;;;;14.42;39.37;98937.28;5071976;28;20053;-65
2023/03/08 04:15:18;;;;;;;6.97;4.85;;;;;;;14.35;39.32;98932.66;5071888;28;20087;-66
2023/03/08 04:17:46;;;;;;;7.95;5.68;;;;;;;14.38;39.36;98946.63;5071938;28;20113;-66
2023/03/08 04:20:14;;;;;;;7.95;5.20;;;;;;;14.38;39.42;98959.19;5071881;28;20056;-66
2023/03/08 04:22:43;;;;;;;7.75;5.18;;;;;;;14.37;39.44;98970.91;5071841;28;20044;-66
2023/03/08 04:25:12;;;;;;;7.82;5.30;;;;;;;14.33;39.47;98976.56;5071768;28;20412;-67
2023/03/08 04:27:40;;;;;;;8.10;5.47;;;;;;;14.23;39.48;98972.22;5071788;28;20501;-67
2023/03/08 04:30:10;;;;;;;7.20;5.20;;;;;;;14.33;39.39;98986.44;5071638;28;20102;-67
2023/03/08 04:32:38;;;;;;;8.00;5.40;;;;;;;14.33;39.44;98992.66;5071750;28;20048;-67
2023/03/08 04:35:07;;;;;;;8.25;5.45;;;;;;;14.30;39.40;98987.59;5071607;28;20049;-67
2023/03/08 04:37:36;;;;;;;8.40;5.68;;;;;;;14.25;39.45;98989.88;5071699;28;20541;-67
2023/03/08 04:40:08;;;;;;;8.20;5.68;;;;;;;14.32;39.57;98999.03;5071514;28;20076;-67
2023/03/08 04:42:39;;;;;;;6.95;4.85;;;;;;;14.37;39.79;99003.09;5071728;28;20139;-67
2023/03/08 04:45:08;;;;;;;7.68;4.75;;;;;;;14.39;39.79;99001.97;5071457;28;20045;-67
2023/03/08 04:47:36;;;;;;;7.35;4.93;;;;;;;14.50;39.71;98995.59;5071762;28;20040;-67
2023/03/08 04:50:06;;;;;;;7.55;4.75;;;;;;;14.63;39.63;99006.00;5071605;28;20079;-67
2023/03/08 04:52:35;;;;;;;6.97;4.50;;;;;;;14.72;39.64;99005.94;5071654;28;20049;-67
2023/03/08 04:55:03;;;;;;;6.90;4.63;;;;;;;14.78;39.51;99001.84;5071443;28;20036;-67
2023/03/08 04:57:33;;;;;;;7.47;4.93;;;;;;;14.93;39.41;99005.69;5071533;28;20040;-67
2023/03/08 05:00:04;;;;;;;6.88;4.40;;;;;;;15.04;39.37;99001.94;5071516;28;20056;-67
2023/03/08 05:02:33;;;;;;;6.85;4.43;;;;;;;15.15;39.31;99002.59;5074185;28;20045;-66
2023/03/08 05:05:01;;;;;;;6.78;4.88;;;;;;;15.27;39.32;99013.97;5075455;28;20047;-66
2023/03/08 05:07:29;;;;;;;7.15;4.35;;;;;;;15.36;39.24;99001.47;5075298;28;20041;-67
2023/03/08 05:09:57;;;;;;;6.93;4.78;;;;;;;15.48;39.06;98999.41;5075295;28;20048;-66
2023/03/08 05:12:25;;;;;;;7.30;4.47;;;;;;;15.57;38.91;98999.31;5075340;28;20050;-66
2023/03/08 05:14:53;;;;;;;6.80;4.50;;;;;;;15.64;39.03;98999.59;5075322;28;20119;-66
2023/03/08 05:17:23;;;;;;;7.82;4.60;;;;;;;15.76;39.00;98998.34;5075113;28;20045;-66
2023/03/08 05:19:51;;;;;;;6.50;4.40;;;;;;;15.88;38.88;98997.06;5074942;28;20082;-66
2023/03/08 05:22:19;;;;;;;7.15;4.63;;;;;;;16.00;38.65;98990.44;5074960;28;20139;-66
2023/03/08 05:24:47;;;;;;;7.00;4.60;;;;;;;16.09;38.63;98994.03;5075027;28;20056;-66
2023/03/08 05:27:15;;;;;;;7.53;4.70;;;;;;;16.22;38.58;98999.84;5074898;28;20048;-67
2023/03/08 05:29:44;;;;;;;7.20;4.38;;;;;;;16.32;38.49;98991.69;5074811;28;20177;-66
2023/03/08 05:32:12;;;;;;;6.97;4.03;;;;;;;16.38;38.53;99007.16;5074929;28;20049;-66
2023/03/08 05:34:42;;;;;;;6.80;4.68;;;;;;;16.46;38.42;99014.44;5074797;28;20064;-67
2023/03/08 05:37:10;;;;;;;7.43;4.57;;;;;;;16.50;38.45;99023.88;5074676;28;20049;-66
2023/03/08 05:39:38;;;;;;;6.45;4.60;;;;;;;16.51;38.50;99025.59;5074603;28;20467;-67
2023/03/08 05:42:07;;;;;;;6.25;4.35;;;;;;;16.52;38.49;99032.66;5074625;28;20125;-66
2023/03/08 05:44:36;;;;;;;6.43;4.18;;;;;;;16.52;38.37;99038.88;5074630;28;20044;-66
2023/03/08 05:47:04;;;;;;;7.57;4.75;;;;;;;16.51;38.42;99044.44;5074376;28;20053;-66
2023/03/08 05:49:32;;;;;;;7.07;4.60;;;;;;;16.48;38.50;99042.88;5074492;28;20486;-66
2023/03/08 05:52:02;;;;;;;6.30;4.28;;;;;;;16.45;38.60;99037.81;5074470;28;20071;-66
2023/03/08 05:54:30;;;;;;;7.20;4.32;;;;;;;16.45;38.57;99053.97;5074341;28;20078;-67
2023/03/08 05:56:58;;;;;;;6.45;4.53;;;;;;;16.43;38.56;99055.16;5074383;28;20386;-67
2023/03/08 05:59:26;;;;;;;6.15;4.45;;;;;;;16.39;38.66;99054.59;5074190;28;20040;-67
2023/03/08 06:01:55;;;;;;;6.85;4.32;;;;;;;16.38;38.61;99065.53;5074263;28;20045;-67
2023/03/08 06:04:23;;;;;;;6.68;4.18;;;;;;;16.35;38.54;99074.75;5074209;28;20095;-67
2023/03/08 06:06:51;;;;;;;7.50;4.50;;;;;;;16.32;38.73;99075.09;5074659;28;20072;-66
2023/03/08 06:09:20;;;;;;;6.85;4.45;;;;;;;16.29;38.67;99075.38;5074184;28;20051;-66
2023/03/08 06:11:49;;;;;;;6.65;4.38;;;;;;;16.24;38.62;99075.88;5073889;28;20041;-65
2023/03/08 06:14:17;;;;;;;6.05;4.28;;;;;;;16.23;38.77;99084.09;5074130;28;20048;-67
2023/03/08 06:16:47;;;;;;;5.97;3.95;;;;;;;16.19;38.80;99086.25;5078215;28;20105;-69
2023/03/08 06:19:15;;;;;;;7.82;4.68;;;;;;;16.11;38.82;99079.94;5079345;28;20409;-68
2023/03/08 06:21:43;;;;;;;7.13;4.65;;;;;;;16.11;38.87;99080.78;5074826;28;20411;-67
2023/03/08 06:24:11;;;;;;;5.68;4.05;;;;;;;16.08;38.97;99091.03;5073867;28;20075;-67
2023/03/08 06:26:41;;;;;;;6.68;4.18;;;;;;;16.05;39.26;99099.41;5073581;28;20070;-67
2023/03/08 06:29:09;;;;;;;6.65;4.28;;;;;;;16.02;39.34;99101.41;5073657;28;20048;-67
2023/03/08 06:31:38;;;;;;;6.38;4.10;;;;;;;15.99;39.34;99107.09;5073464;28;20052;-67
2023/03/08 06:34:06;;;;;;;7.45;4.90;;;;;;;15.96;39.31;99102.03;5073360;28;20399;-67
2023/03/08 06:36:34;;;;;;;6.20;4.20;;;;;;;15.94;39.24;99108.56;5073393;28;20614;-67
2023/03/08 06:39:02;;;;;;;6.25;4.15;;;;;;;15.90;39.19;99113.38;5073115;28;20055;-67
2023/03/08 06:41:30;;;;;;;6.35;4.35;;;;;;;15.90;39.02;99113.38;5073145;28;20411;-66
2023/03/08 06:44:00;;;;;;;7.15;4.22;;;;;;;15.86;38.97;99117.41;5073026;28;20563;-67
2023/03/08 06:46:28;;;;;;;6.90;4.72;;;;;;;15.85;38.98;99114.88;5072736;28;20131;-67
2023/03/08 06:48:56;;;;;;;6.80;4.15;;;;;;;15.82;39.12;99121.38;5073096;28;20052;-67
2023/03/08 06:51:25;;;;;;;6.85;4.50;;;;;;;15.80;39.09;99131.44;5073141;28;20044;-68
2023/03/08 06:53:53;;;;;;;6.28;4.07;;;;;;;15.76;39.11;99127.38;5073242;28;20124;-69
2023/03/08 06:56:21;;;;;;;6.47;4.13;;;;;;;15.74;39.09;99121.31;5074424;28;20053;-67
2023/03/08 06:58:49;;;;;;;6.70;4.50;;;;;;;15.72;38.95;99126.81;5073711;28;20052;-66
2023/03/08 07:01:19;;;;;;;7.28;4.40;;;;;;;15.68;39.14;99127.28;5072910;28;20044;-68
2023/03/08 07:03:47;;;;;;;5.55;3.97;;;;;;;15.65;39.16;99131.13;5073117;28;20055;-69
2023/03/08 07:06:16;;;;;;;7.10;4.57;;;;;;;15.64;39.22;99148.25;5072996;28;20075;-71
2023/03/08 07:08:44;;;;;;;6.18;4.15;;;;;;;15.64;39.16;99136.66;5072775;28;20523;-70
2023/03/08 07:11:12;;;;;;;6.57;4.07;;;;;;;15.61;39.26;99147.69;5073003;28;20080;-71
2023/03/08 07:13:42;;;;;;;6.95;4.18;;;;;;;15.56;39.28;99147.28;5072889;28;20116;-71
2023/03/08 07:16:12;;;;;;;6.70;4.30;;;;;;;15.56;39.38;99155.34;5072645;28;20071;-70
2023/03/08 07:18:42;;;;;;;6.70;4.13;;;;;;;15.55;39.36;99161.72;5072589;28;20045;-69
2023/03/08 07:21:11;;;;;;;6.93;4.40;;;;;;;15.53;39.30;99158.31;5072699;28;20048;-69
2023/03/08 07:23:39;;;;;;;6.82;3.83;;;;;;;15.51;39.33;99168.38;5072110;28;20094;-69
2023/03/08 07:26:10;;;;;;;6.78;4.07;;;;;;;15.51;39.39;99176.44;5072443;28;20044;-70
2023/03/08 07:28:38;;;;;;;5.60;3.50;;;;;;;15.48;39.40;99172.22;5072599;28;20048;-68
2023/03/08 07:31:09;;;;;;;6.70;4.30;;;;;;;15.48;39.43;99182.97;5072597;28;20090;-70
2023/03/08 07:33:38;;;;;;;6.10;4.00;;;;;;;15.46;39.46;99180.44;5072519;28;20072;-69
2023/03/08 07:36:09;;;;;;;7.20;4.35;;;;;;;15.45;39.45;99178.75;5072302;28;20103;-70
2023/03/08 07:38:38;;;;;;;8.55;4.65;;;;;;;15.43;39.40;99182.56;5072214;28;20040;-69
2023/03/08 07:41:06;;;;;;;6.47;4.00;;;;;;;15.43;39.46;99180.72;5072343;28;20507;-68
2023/03/08 07:43:35;;;;;;;6.07;4.00;;;;;;;15.42;39.46;99188.94;5069275;28;20048;-68
2023/03/08 07:46:03;;;;;;;7.60;4.35;;;;;;;15.39;39.48;99189.25;5072798;28;20048;-67
2023/03/08 07:48:32;;;;;;;7.45;4.03;;;;;;;15.38;39.55;99195.59;5056213;28;20037;-68
2023/03/08 07:51:03;;;;;;;5.82;3.83;;;;;;;15.37;39.73;99191.22;5067498;28;20053;-68
2023/03/08 07:53:33;;;;;;;5.68;3.63;;;;;;;15.32;39.57;99183.59;5071807;28;20048;-68
2023/03/08 07:56:01;;;;;;;8.13;4.03;;;;;;;15.33;39.77;99193.34;5070821;28;20040;-69
2023/03/08 07:58:29;;;;;;;6.53;3.78;;;;;;;15.33;39.64;99200.56;5071926;28;20393;-69
2023/03/08 08:00:58;;;;;;;6.90;3.90;;;;;;;15.32;39.72;99199.72;5071895;28;20290;-69
2023/03/08 08:03:26;;;;;;;7.53;3.50;;;;;;;15.29;39.76;99202.72;5070876;28;20053;-68
2023/03/08 08:05:54;;;;;;;6.88;3.78;;;;;;;15.27;39.80;99207.41;5071857;28;20542;-68
2023/03/08 08:08:22;;;;;;;6.60;3.70;;;;;;;15.29;39.71;99216.16;5071902;28;20486;-69
2023/03/08 08:10:52;;;;;;;7.15;3.92;;;;;;;15.27;39.77;99212.78;5072035;28;20048;-68
2023/03/08 08:13:20;;;;;;;8.15;4.18;;;;;;;15.26;39.76;99216.44;5071823;28;20052;-69
2023/03/08 08:15:57;;;;;;;6.78;3.95;;;;;;;15.25;39.84;99219.25;5071673;28;20048;-69
2023/03/08 08:18:26;;;;;;;6.75;3.85;;;;;;;15.24;39.82;99215.72;5071623;28;20054;-68
2023/03/08 08:21:02;;;;;;;7.18;3.85;;;;;;;15.22;39.79;99219.56;5071678;28;20048;-69
2023/03/08 08:23:32;;;;;;;7.10;3.67;;;;;;;15.21;39.83;99215.19;5071710;28;20428;-68
2023/03/08 08:26:05;;;;;;;8.32;4.35;;;;;;;15.16;39.91;99204.91;5071623;28;20074;-68
2023/03/08 08:28:34;;;;;;;6.43;3.60;;;;;;;15.21;39.94;99212.50;5071600;28;20049;-68
2023/03/08 08:31:05;;;;;;;6.30;3.67;;;;;;;15.20;39.89;99217.03;5071559;28;20045;-68
2023/03/08 08:33:34;;;;;;;6.40;3.78;;;;;;;15.20;39.92;99210.81;5071685;28;20048;-68
2023/03/08 08:36:08;;;;;;;7.28;4.22;;;;;;;15.20;39.84;99216.19;5071305;28;20040;-68
2023/03/08 08:38:36;;;;;;;8.30;3.80;;;;;;;15.17;39.85;99211.97;5071006;28;20049;-69
2023/03/08 08:41:07;;;;;;;6.60;3.70;;;;;;;15.14;39.85;99217.59;5071663;28;20121;-68
2023/03/08 08:43:37;;;;;;;7.72;3.83;;;;;;;15.17;39.92;99217.31;5071559;28;20045;-69
2023/03/08 08:46:05;;;;;;;8.30;3.67;;;;;;;15.17;39.89;99218.19;5071693;28;20048;-68
2023/03/08 08:48:36;;;;;;;5.80;3.75;;;;;;;15.16;39.97;99210.28;5071396;28;20048;-69
2023/03/08 08:51:05;;;;;;;9.13;3.67;;;;;;;15.13;39.88;99210.53;5071389;28;20119;-68
2023/03/08 08:53:33;;;;;;;6.85;3.97;;;;;;;15.15;39.99;99208.53;5071346;28;20041;-68
2023/03/08 08:56:12;;;;;;;7.28;4.10;;;;;;;15.14;39.94;99207.69;5071397;28;20075;-68
2023/03/08 08:58:53;;;;;;;6.97;3.60;;;;;;;15.14;40.01;99213.06;5071293;28;20111;-69
2023/03/08 09:01:23;;;;;;;9.50;4.13;;;;;;;15.12;40.02;99193.56;5071238;28;20048;-68
2023/03/08 09:03:51;;;;;;;7.93;3.85;;;;;;;15.12;40.07;99190.06;5071330;28;20072;-69
2023/03/08 09:06:21;;;;;;;6.22;3.80;;;;;;;15.12;39.88;99188.22;5071478;28;20048;-68
2023/03/08 09:08:50;;;;;;;7.03;3.63;;;;;;;15.15;40.02;99197.81;5071169;28;20045;-68
2023/03/08 09:11:20;;;;;;;5.63;3.60;;;;;;;15.14;40.11;99191.59;5071373;28;20048;-69
2023/03/08 09:13:49;;;;;;;7.70;4.18;;;;;;;15.14;39.98;99196.97;5071238;28;20660;-69
2023/03/08 09:16:20;;;;;;;7.28;3.50;;;;;;;15.13;40.06;99195.25;5071118;28;20049;-68
2023/03/08 09:18:49;;;;;;;7.70;3.10;;;;;;;15.14;40.04;99185.38;5071338;28;20106;-69
2023/03/08 09:21:17;;;;;;;5.68;3.65;;;;;;;15.15;39.97;99182.56;5070982;28;20045;-68
2023/03/08 09:23:46;;;;;;;5.78;3.28;;;;;;;15.14;39.91;99180.00;5070791;28;20123;-68
2023/03/08 09:26:14;;;;;;;7.47;3.70;;;;;;;15.16;39.99;99184.25;5071105;28;20090;-68
2023/03/08 09:28:44;;;;;;;6.75;3.83;;;;;;;15.16;40.01;99175.34;5070974;28;20072;-69
2023/03/08 09:31:16;;;;;;;6.88;3.45;;;;;;;15.17;40.07;99174.34;5071135;28;20040;-69
2023/03/08 09:33:47;;;;;;;8.98;3.80;;;;;;;15.18;40.05;99176.03;5071060;28;20060;-69
2023/03/08 09:36:16;;;;;;;6.40;3.30;;;;;;;15.21;40.06;99174.88;5071077;28;20048;-69
2023/03/08 09:38:44;;;;;;;6.10;3.30;;;;;;;15.22;39.88;99172.06;5070758;28;20040;-69
2023/03/08 09:41:47;;;;;;;6.20;3.53;;;;;;;15.26;39.71;99175.31;5070796;28;20044;-69
2023/03/08 09:44:44;;;;;;;6.80;3.85;;;;;;;15.27;39.64;99177.00;5051290;28;20506;-69
2023/03/08 09:47:25;;;;;;;5.95;3.67;;;;;;;15.27;39.64;99179.69;5071155;28;20270;-68
2023/03/08 09:49:55;;;;;;;6.40;3.58;;;;;;;15.29;39.73;99178.53;5074174;28;20052;-68
2023/03/08 09:52:32;;;;;;;5.47;3.38;;;;;;;15.28;39.67;99179.53;5074704;28;20279;-68
2023/03/08 09:55:04;;;;;;;7.78;3.72;;;;;;;15.31;39.74;99183.75;5074301;28;20068;-68
2023/03/08 09:57:37;;;;;;;7.03;3.58;;;;;;;15.33;39.69;99184.44;5074185;28;20048;-67
2023/03/08 10:00:20;;;;;;;7.18;4.07;;;;;;;15.32;39.88;99180.06;5074019;28;20045;-68
2023/03/08 10:03:01;;;;;;;5.70;3.38;;;;;;;15.36;39.69;99176.97;5074083;28;20053;-69
2023/03/08 10:05:38;;;;;;;7.20;3.20;;;;;;;15.38;39.81;99166.91;5073939;28;20489;-68
2023/03/08 10:08:12;;;;;;;6.50;3.15;;;;;;;15.42;39.81;99162.06;5074322;28;20441;-69
2023/03/08 10:10:48;;;;;;;5.13;3.05;;;;;;;15.39;39.92;99163.22;5074134;28;20390;-68
2023/03/08 10:13:32;;;;;;;5.63;3.47;;;;;;;15.44;39.91;99163.63;5073955;28;20079;-69
2023/03/08 10:16:12;;;;;;;5.65;3.38;;;;;;;15.43;39.81;99164.59;5073895;28;20048;-68
2023/03/08 10:18:46;;;;;;;5.53;2.92;;;;;;;15.44;39.83;99166.31;5073878;28;20076;-68
2023/03/08 10:21:17;;;;;;;5.07;3.28;;;;;;;15.46;39.58;99167.00;5074035;28;20044;-68
2023/03/08 10:23:48;;;;;;;5.70;3.45;;;;;;;15.45;39.60;99168.00;5073676;28;20055;-68
2023/03/08 10:26:17;;;;;;;5.35;2.83;;;;;;;15.48;39.55;99155.25;5073843;28;20136;-68
2023/03/08 10:28:45;;;;;;;6.70;3.97;;;;;;;15.43;39.53;99153.84;5073609;28;20036;-68
2023/03/08 10:31:23;;;;;;;6.55;4.10;;;;;;;15.46;39.65;99158.94;5073552;28;20044;-68
2023/03/08 10:34:00;;;;;;;7.35;4.00;;;;;;;15.49;39.14;99156.94;5073268;28;20437;-68
2023/03/08 10:36:30;;;;;;;7.95;4.82;;;;;;;15.51;39.48;99169.22;5073594;28;20049;-68
2023/03/08 10:39:05;;;;;;;7.85;4.43;;;;;;;15.54;39.34;99165.38;5073185;28;20049;-67
2023/03/08 10:41:42;;;;;;;5.93;3.70;;;;;;;15.54;39.47;99165.38;5073270;28;20547;-69
2023/03/08 10:44:14;;;;;;;7.47;4.00;;;;;;;15.58;39.53;99167.63;5073268;28;20318;-68
2023/03/08 10:46:49;;;;;;;6.07;3.95;;;;;;;15.63;39.57;99159.13;5073187;28;20110;-68
2023/03/08 10:49:19;;;;;;;6.13;3.70;;;;;;;15.64;39.64;99167.09;5073193;28;20044;-67
2023/03/08 10:51:56;;;;;;;5.88;3.60;;;;;;;15.65;39.80;99162.53;5073231;28;20400;-69
2023/03/08 10:54:25;;;;;;;6.10;4.07;;;;;;;15.66;39.81;99165.09;5055545;28;20135;-69
2023/03/08 10:56:56;;;;;;;7.47;4.20;;;;;;;15.67;39.71;99155.16;5073180;28;20054;-69
2023/03/08 10:59:31;;;;;;;7.47;3.70;;;;;;;15.69;39.80;99154.00;5073086;28;20501;-69
2023/03/08 11:02:03;;;;;;;5.20;3.35;;;;;;;15.71;39.80;99146.63;5073017;28;20444;-69
2023/03/08 11:04:31;;;;;;;5.70;3.33;;;;;;;15.73;39.80;99144.66;5072875;28;20055;-69
2023/03/08 11:07:11;;;;;;;9.10;4.40;;;;;;;15.72;39.78;99142.09;5072846;28;20040;-68
2023/03/08 11:09:39;;;;;;;7.20;4.35;;;;;;;15.76;39.85;99143.50;5072460;28;20421;-68
2023/03/08 11:12:22;;;;;;;6.65;3.55;;;;;;;15.77;40.00;99141.66;5073002;28;20040;-68
2023/03/08 11:14:51;;;;;;;5.68;3.60;;;;;;;15.77;39.83;99129.06;5072819;28;20055;-68
2023/03/08 11:17:27;;;;;;;6.25;3.65;;;;;;;15.79;39.83;99126.22;5072668;28;20102;-69
2023/03/08 11:20:09;;;;;;;6.85;3.70;;;;;;;15.79;39.69;99112.78;5072996;28;20052;-68
2023/03/08 11:22:53;;;;;;;6.75;4.28;;;;;;;15.82;39.60;99120.53;5072549;28;20048;-68
2023/03/08 11:25:35;;;;;;;6.68;4.10;;;;;;;15.82;39.62;99113.31;5072539;28;20040;-69
2023/03/08 11:28:37;;;;;;;7.93;4.82;;;;;;;15.83;39.61;99116.88;5072762;28;20079;-69
2023/03/08 11:31:14;;;;;;;5.80;3.60;;;;;;;15.83;39.53;99112.34;5050575;28;20052;-69
2023/03/08 11:34:16;;;;;;;6.10;3.53;;;;;;;15.84;39.57;99115.88;5072186;28;20155;-67
2023/03/08 11:36:50;;;;;;;6.88;4.18;;;;;;;15.83;39.74;99116.88;5072484;28;20044;-67
2023/03/08 11:39:26;;;;;;;7.30;4.15;;;;;;;15.80;39.44;99112.63;5072277;28;20052;-68
2023/03/08 11:42:02;;;;;;;6.90;4.38;;;;;;;15.83;39.30;99114.19;5072241;28;20438;-67
2023/03/08 11:44:43;;;;;;;7.47;3.65;;;;;;;15.82;39.05;99113.31;5072365;28;20481;-68
2023/03/08 11:47:37;;;;;;;8.00;4.30;;;;;;;15.81;38.98;99108.09;5072122;28;20056;-68
2023/03/08 11:50:16;;;;;;;7.63;4.22;;;;;;;15.80;38.92;99107.25;5072115;28;20076;-67